Time;durP1;ratioP1;P1;durP2;ratioP2;P2;SDS_P1;SDS_P2;PMS_P1;PMS_P2;Temp;Humidity;BMP_temperature;BMP_pressure;BME280_temperature;BME280_humidity;BME280_pressure;Samples;Min_cycle;Max_cycle;Signal;HPM_P1;HPM_P2
2023/01/02 15:03:10;;;;;;;18.65;10.65;;;9.90;88.80;;;;;;5131370;27;20575;-52
2023/01/02 15:05:46;;;;;;;16.85;9.45;;;9.80;89.10;;;;;;5131006;28;20039;-54
2023/01/02 15:08:33;;;;;;;14.60;8.93;;;9.80;89.10;;;;;;5131279;28;20520;-54
2023/01/02 15:13:02;;;;;;;14.30;8.05;;;9.80;88.70;;;;;;5130758;27;20019;-53
2023/01/02 15:13:53;;;;;;;15.15;7.88;;;9.90;88.20;;;;;;5130637;28;20473;-54
2023/01/02 15:16:22;;;;;;;12.70;8.80;;;9.80;88.20;;;;;;5125064;28;20023;-53
2023/01/02 15:18:54;;;;;;;14.55;7.75;;;9.80;87.90;;;;;;5130724;27;20031;-51
2023/01/02 15:21:22;;;;;;;13.00;7.68;;;9.80;87.90;;;;;;5130612;27;20019;-54
2023/01/02 15:23:48;;;;;;;12.48;7.28;;;9.70;87.70;;;;;;5130554;27;20115;-55
2023/01/02 15:26:32;;;;;;;13.02;7.70;;;9.80;88.10;;;;;;5130786;27;20055;-53
2023/01/02 15:28:59;;;;;;;15.15;8.27;;;9.70;88.20;;;;;;5130781;27;20026;-53
2023/01/02 15:31:26;;;;;;;14.00;8.02;;;9.70;88.40;;;;;;5129384;28;20055;-53
2023/01/02 15:33:54;;;;;;;15.73;7.43;;;9.70;88.50;;;;;;5130624;28;20106;-52
2023/01/02 15:36:32;;;;;;;14.10;8.15;;;9.60;88.80;;;;;;5131009;27;20098;-50
2023/01/02 15:39:05;;;;;;;13.18;7.55;;;9.60;89.10;;;;;;5131249;27;20035;-51
2023/01/02 15:41:31;;;;;;;13.35;7.78;;;9.60;89.00;;;;;;5129076;28;20114;-54
2023/01/02 15:46:43;;;;;;;11.13;6.50;;;9.50;88.70;;;;;;5130563;28;20117;-53
2023/01/02 15:49:12;;;;;;;7.55;5.45;;;9.60;88.50;;;;;;5130561;27;20025;-57
2023/01/02 15:51:38;;;;;;;9.80;5.72;;;9.60;87.90;;;;;;5129606;28;20042;-60
2023/01/02 15:54:04;;;;;;;8.93;5.35;;;9.50;87.80;;;;;;5128939;28;20032;-58
2023/01/02 15:56:35;;;;;;;9.23;5.05;;;9.50;87.70;;;;;;5130832;28;20427;-55
2023/01/02 15:59:02;;;;;;;;;;;9.50;87.40;;;;;;5132076;27;20109;-59
2023/01/02 16:01:27;;;;;;;7.55;3.72;;;9.40;87.00;;;;;;5129178;28;19980;-57
2023/01/02 16:04:03;;;;;;;12.00;6.63;;;9.40;87.00;;;;;;5130726;27;20107;-59
2023/01/02 16:06:29;;;;;;;12.35;4.82;;;9.40;86.80;;;;;;5130011;27;20024;-61
2023/01/02 16:08:57;;;;;;;6.35;3.47;;;9.40;86.60;;;;;;5130019;27;20028;-59
2023/01/02 16:11:23;;;;;;;6.40;2.67;;;9.50;86.50;;;;;;5130244;27;20023;-59
2023/01/02 16:14:18;;;;;;;6.28;3.17;;;9.50;86.40;;;;;;5120292;27;20032;-58
2023/01/02 16:17:06;;;;;;;6.28;4.10;;;9.50;86.40;;;;;;5116256;28;20352;-59
2023/01/02 16:19:34;;;;;;;7.75;3.38;;;9.50;86.60;;;;;;5116282;28;20023;-60
2023/01/02 16:22:09;;;;;;;3.60;2.63;;;9.50;86.10;;;;;;5115940;28;20095;-58
2023/01/02 16:24:42;;;;;;;6.60;3.65;;;9.50;86.20;;;;;;5116422;28;20077;-61
2023/01/02 16:27:14;;;;;;;10.32;2.97;;;9.50;86.20;;;;;;5114927;28;20030;-60
2023/01/02 16:29:43;;;;;;;11.23;4.85;;;9.50;85.80;;;;;;5116387;28;20501;-61
2023/01/02 16:32:29;;;;;;;11.38;3.83;;;9.50;85.90;;;;;;5115886;27;20038;-59
2023/01/02 16:34:59;;;;;;;5.03;3.55;;;9.50;86.20;;;;;;5116110;28;20034;-59
2023/01/02 16:37:32;;;;;;;6.55;2.70;;;9.60;86.40;;;;;;5116039;28;20059;-59
2023/01/02 16:40:23;;;;;;;5.20;2.63;;;9.50;86.60;;;;;;5115784;28;20039;-59
2023/01/02 16:43:02;;;;;;;9.52;3.97;;;9.50;87.00;;;;;;5115553;28;20032;-60
2023/01/02 16:45:32;;;;;;;6.10;3.60;;;9.50;87.10;;;;;;5116037;28;20459;-60
2023/01/02 16:47:59;;;;;;;6.05;3.65;;;9.50;87.30;;;;;;5115922;28;20035;-57
2023/01/02 16:50:26;;;;;;;9.38;4.57;;;9.50;87.30;;;;;;5114040;28;20051;-58
2023/01/02 16:52:56;;;;;;;14.38;6.18;;;9.60;87.40;;;;;;5115617;28;20027;-58
2023/01/02 16:55:23;;;;;;;12.98;5.50;;;9.60;87.30;;;;;;5115374;27;20027;-60
2023/01/02 16:57:50;;;;;;;9.43;4.93;;;9.60;87.50;;;;;;5113866;28;20023;-58
2023/01/02 17:00:17;;;;;;;7.57;3.78;;;9.60;87.60;;;;;;5115744;28;20015;-60
2023/01/02 17:02:44;;;;;;;6.10;4.40;;;9.70;87.70;;;;;;5115208;28;20467;-58
2023/01/02 17:05:29;;;;;;;7.80;5.28;;;9.70;87.70;;;;;;5115275;28;20086;-61
2023/01/02 17:07:55;;;;;;;9.65;5.65;;;9.80;87.70;;;;;;5115156;28;20027;-59
2023/01/02 17:10:21;;;;;;;5.88;4.90;;;9.70;87.60;;;;;;5114557;28;20024;-60
2023/01/02 17:12:47;;;;;;;11.57;5.15;;;9.70;87.80;;;;;;5115583;28;20096;-57
2023/01/02 17:15:14;;;;;;;8.73;5.25;;;9.70;88.10;;;;;;5115117;28;20467;-60
2023/01/02 17:17:40;;;;;;;8.18;5.75;;;9.70;88.20;;;;;;5115341;28;20024;-58
2023/01/02 17:20:08;;;;;;;8.90;5.13;;;9.60;88.50;;;;;;5115269;28;20118;-60
2023/01/02 17:22:35;;;;;;;10.35;5.65;;;9.70;88.40;;;;;;5115080;28;20027;-59
2023/01/02 17:25:02;;;;;;;9.07;4.68;;;9.60;88.40;;;;;;5095838;28;20023;-60
2023/01/02 17:27:28;;;;;;;6.22;4.32;;;9.60;88.20;;;;;;5114920;28;20106;-59
2023/01/02 17:29:54;;;;;;;4.47;3.33;;;9.60;88.10;;;;;;5114915;28;20175;-61
2023/01/02 17:32:19;;;;;;;7.05;2.70;;;9.60;87.60;;;;;;5114864;28;20050;-59
2023/01/02 17:34:47;;;;;;;4.03;2.55;;;9.50;87.20;;;;;;5115009;28;20063;-60
2023/01/02 17:37:13;;;;;;;4.20;3.03;;;9.50;87.20;;;;;;5114478;28;20027;-59
2023/01/02 17:39:39;;;;;;;4.47;2.05;;;9.50;86.80;;;;;;5114499;28;20051;-60
2023/01/02 17:42:04;;;;;;;4.10;1.85;;;9.40;87.00;;;;;;5114658;28;20059;-59
2023/01/02 17:44:30;;;;;;;3.45;2.58;;;9.40;86.60;;;;;;5113994;28;20026;-59
2023/01/02 17:46:57;;;;;;;3.40;1.80;;;9.40;86.30;;;;;;5114779;28;20035;-58
2023/01/02 17:49:22;;;;;;;3.47;2.08;;;9.40;86.10;;;;;;5113430;28;20045;-58
2023/01/02 17:51:48;;;;;;;3.35;2.13;;;9.30;86.30;;;;;;5114714;28;20127;-58
2023/01/02 17:54:14;;;;;;;3.75;2.45;;;9.30;86.40;;;;;;5114649;28;20030;-59
2023/01/02 17:56:39;;;;;;;6.53;2.60;;;9.30;86.40;;;;;;5114271;28;20028;-58
2023/01/02 17:59:05;;;;;;;2.88;1.95;;;9.20;86.80;;;;;;5114393;28;20034;-58
2023/01/02 18:01:31;;;;;;;5.63;2.70;;;9.20;86.70;;;;;;5112865;28;20039;-60
2023/01/02 18:03:56;;;;;;;4.78;3.53;;;9.10;86.90;;;;;;5114236;28;20387;-58
2023/01/02 18:06:22;;;;;;;3.75;2.67;;;9.10;87.00;;;;;;5113893;28;20028;-61
2023/01/02 18:08:49;;;;;;;4.57;2.78;;;9.10;87.00;;;;;;5114548;28;20028;-59
2023/01/02 18:11:16;;;;;;;5.60;3.00;;;9.10;87.00;;;;;;5114200;28;20115;-59
2023/01/02 18:13:51;;;;;;;5.07;3.33;;;9.10;87.10;;;;;;5114569;28;20082;-59
2023/01/02 18:16:25;;;;;;;7.13;2.85;;;9.10;87.20;;;;;;5112656;28;20031;-60
2023/01/02 18:18:52;;;;;;;6.65;2.75;;;9.10;87.30;;;;;;5114117;28;20027;-57
2023/01/02 18:21:21;;;;;;;3.90;3.08;;;9.20;87.40;;;;;;5113717;28;20032;-59
2023/01/02 18:23:50;;;;;;;7.07;3.58;;;9.10;87.40;;;;;;5114116;28;20011;-60
2023/01/02 18:26:18;;;;;;;10.40;3.17;;;9.10;87.50;;;;;;5114167;28;20028;-57
2023/01/02 18:28:57;;;;;;;5.35;2.88;;;9.10;87.50;;;;;;5113905;28;20020;-57
2023/01/02 18:31:26;;;;;;;4.07;3.40;;;9.10;87.30;;;;;;5114320;28;20028;-58
2023/01/02 18:34:01;;;;;;;6.20;3.95;;;9.10;87.40;;;;;;5113680;28;20368;-60
2023/01/02 18:36:28;;;;;;;6.45;4.07;;;9.10;87.60;;;;;;5113253;27;20024;-60
2023/01/02 18:39:30;;;;;;;8.13;3.78;;;9.10;87.50;;;;;;5113801;28;20507;-57
2023/01/02 18:42:08;;;;;;;7.28;4.10;;;9.00;87.70;;;;;;5113863;28;20031;-61
2023/01/02 18:44:34;;;;;;;8.55;6.18;;;9.00;88.00;;;;;;5113598;28;20356;-59
2023/01/02 18:47:20;;;;;;;7.32;4.40;;;9.00;88.00;;;;;;5113511;28;20046;-55
2023/01/02 18:49:46;;;;;;;10.50;4.28;;;8.90;88.10;;;;;;5113517;28;20027;-59
2023/01/02 18:52:30;;;;;;;4.88;3.65;;;8.80;88.20;;;;;;5113532;28;20089;-59
2023/01/02 18:55:00;;;;;;;8.23;4.93;;;8.80;88.40;;;;;;5115260;28;20041;-59
2023/01/02 18:57:32;;;;;;;12.07;4.55;;;8.80;88.50;;;;;;5113546;28;20023;-60
2023/01/02 19:00:21;;;;;;;9.07;4.57;;;8.60;88.60;;;;;;5113652;28;20035;-60
2023/01/02 19:02:53;;;;;;;6.53;4.22;;;8.70;88.90;;;;;;5113149;28;20127;-57
2023/01/02 19:05:24;;;;;;;7.43;4.47;;;8.60;89.00;;;;;;5113126;28;20024;-58
2023/01/02 19:07:51;;;;;;;8.90;3.88;;;8.50;89.20;;;;;;5113564;28;20024;-58
2023/01/02 19:10:32;;;;;;;8.00;3.70;;;8.60;89.40;;;;;;5113528;28;20487;-59
2023/01/02 19:13:00;;;;;;;;;;;8.40;89.60;;;;;;5113559;28;20028;-54
2023/01/02 19:15:34;;;;;;;7.50;3.95;;;8.40;89.80;;;;;;5116197;28;19999;-58
2023/01/02 19:18:24;;;;;;;9.07;5.90;;;8.40;89.90;;;;;;5113357;28;20098;-57
2023/01/02 19:21:08;;;;;;;10.20;5.40;;;8.40;90.00;;;;;;5111676;28;20035;-58
2023/01/02 19:23:48;;;;;;;7.32;4.55;;;8.30;90.10;;;;;;5113510;28;20024;-55
2023/01/02 19:26:31;;;;;;;16.83;6.77;;;8.30;90.20;;;;;;5113073;28;20031;-59
2023/01/02 19:29:29;;;;;;;10.63;5.45;;;8.40;90.20;;;;;;5113457;28;20366;-58
2023/01/02 19:32:24;;;;;;;12.07;6.18;;;8.40;90.20;;;;;;5104848;28;20096;-59
2023/01/02 19:34:51;;;;;;;14.98;5.32;;;8.30;90.30;;;;;;5111708;28;20027;-60
2023/01/02 19:37:39;;;;;;;10.13;6.18;;;8.30;90.20;;;;;;5113043;28;20383;-59
2023/01/02 19:40:15;;;;;;;10.55;5.75;;;8.40;90.10;;;;;;5113461;28;20043;-60
2023/01/02 19:42:41;;;;;;;9.75;3.67;;;8.40;89.90;;;;;;5113690;28;20041;-60
2023/01/02 19:45:15;;;;;;;10.90;5.20;;;8.40;89.60;;;;;;5113251;28;20027;-59
2023/01/02 19:47:41;;;;;;;10.23;6.22;;;8.40;89.60;;;;;;5113136;28;20032;-58
2023/01/02 19:50:12;;;;;;;9.40;4.03;;;8.50;89.20;;;;;;5116792;28;20034;-59
2023/01/02 19:52:38;;;;;;;5.32;4.28;;;8.50;88.80;;;;;;5117454;28;20023;-59
2023/01/02 19:55:06;;;;;;;8.32;4.10;;;8.60;88.60;;;;;;5116502;28;20027;-55
2023/01/02 19:57:33;;;;;;;7.20;4.13;;;8.60;88.60;;;;;;5116233;28;20024;-57
2023/01/02 19:59:59;;;;;;;12.73;4.28;;;8.60;88.50;;;;;;5116045;28;20031;-55
2023/01/02 20:02:26;;;;;;;7.50;3.85;;;8.70;88.10;;;;;;5115418;27;20048;-58
2023/01/02 20:04:54;;;;;;;10.82;4.93;;;8.60;88.10;;;;;;5116252;28;20023;-58
2023/01/02 20:07:21;;;;;;;12.98;4.97;;;8.60;88.00;;;;;;5116540;28;20061;-59
2023/01/02 20:09:47;;;;;;;10.48;5.57;;;8.60;88.20;;;;;;5116408;28;20038;-59
2023/01/02 20:14:59;;;;;;;8.25;5.13;;;8.60;88.30;;;;;;5116760;28;20035;-58
2023/01/02 20:17:27;;;;;;;7.05;4.88;;;8.60;88.10;;;;;;5116578;28;20447;-59
2023/01/02 20:19:53;;;;;;;12.20;5.35;;;8.60;88.10;;;;;;5116624;28;20486;-58
2023/01/02 20:22:19;;;;;;;9.85;5.93;;;8.60;88.00;;;;;;5116365;28;20019;-57
2023/01/02 20:24:44;;;;;;;11.75;5.35;;;8.50;88.10;;;;;;5116422;28;20100;-57
2023/01/02 20:27:12;;;;;;;9.55;5.70;;;8.60;88.30;;;;;;5116306;28;20122;-59
2023/01/02 20:29:38;;;;;;;15.80;5.53;;;8.60;88.10;;;;;;5116589;27;20486;-56
2023/01/02 20:32:04;;;;;;;10.82;6.95;;;8.60;88.30;;;;;;5118529;28;20023;-59
2023/01/02 20:34:30;;;;;;;15.65;7.57;;;8.60;88.00;;;;;;5117135;28;20073;-58
2023/01/02 20:36:56;;;;;;;12.07;6.13;;;8.60;88.00;;;;;;5114773;28;20023;-54
2023/01/02 20:39:22;;;;;;;11.05;7.10;;;8.60;88.00;;;;;;5116638;28;20055;-56
2023/01/02 20:41:48;;;;;;;13.10;7.18;;;8.60;87.90;;;;;;5116070;28;20071;-59
2023/01/02 20:44:14;;;;;;;14.50;7.32;;;8.70;87.80;;;;;;5116631;28;20031;-57
2023/01/02 20:46:40;;;;;;;11.35;7.80;;;8.70;87.70;;;;;;5116215;28;20451;-56
2023/01/02 20:49:06;;;;;;;12.70;7.85;;;8.70;87.50;;;;;;5116181;28;20015;-56
2023/01/02 20:51:34;;;;;;;11.02;6.55;;;8.70;87.50;;;;;;5114394;28;20081;-59
2023/01/02 20:54:00;;;;;;;11.75;6.65;;;8.60;87.50;;;;;;5097850;28;20043;-60
2023/01/02 20:56:26;;;;;;;10.40;5.88;;;8.60;87.50;;;;;;5115834;28;20024;-60
2023/01/02 20:58:53;;;;;;;12.30;6.38;;;8.60;87.50;;;;;;5115642;28;20028;-59
